sensor_id;sensor_type;location;lat;lon;timestamp;P1;durP1;ratioP1;P2;durP2;ratioP2
50954;SDS011;36966;48.064;-0.792;2023-03-19T00:01:09;10.60;;;3.10;;
50954;SDS011;36966;48.064;-0.792;2023-03-19T00:03:29;9.27;;;3.22;;
50954;SDS011;36966;48.064;-0.792;2023-03-19T00:05:49;11.05;;;3.33;;
50954;SDS011;36966;48.064;-0.792;2023-03-19T00:08:10;10.05;;;3.00;;
50954;SDS011;36966;48.064;-0.792;2023-03-19T00:10:30;8.02;;;2.45;;
50954;SDS011;36966;48.064;-0.792;2023-03-19T00:12:49;7.65;;;2.97;;
50954;SDS011;36966;48.064;-0.792;2023-03-19T00:15:09;11.75;;;2.53;;
50954;SDS011;36966;48.064;-0.792;2023-03-19T00:17:32;7.10;;;2.47;;
50954;SDS011;36966;48.064;-0.792;2023-03-19T00:19:51;12.52;;;3.08;;
50954;SDS011;36966;48.064;-0.792;2023-03-19T00:22:10;7.53;;;2.25;;
50954;SDS011;36966;48.064;-0.792;2023-03-19T00:24:29;7.88;;;2.38;;
50954;SDS011;36966;48.064;-0.792;2023-03-19T00:26:48;7.18;;;1.80;;
50954;SDS011;36966;48.064;-0.792;2023-03-19T00:29:08;5.50;;;2.13;;
50954;SDS011;36966;48.064;-0.792;2023-03-19T00:31:28;5.70;;;1.65;;
50954;SDS011;36966;48.064;-0.792;2023-03-19T00:33:47;13.77;;;3.17;;
50954;SDS011;36966;48.064;-0.792;2023-03-19T00:36:06;5.68;;;1.92;;
50954;SDS011;36966;48.064;-0.792;2023-03-19T00:38:26;6.70;;;2.10;;
50954;SDS011;36966;48.064;-0.792;2023-03-19T00:40:46;8.10;;;1.50;;
50954;SDS011;36966;48.064;-0.792;2023-03-19T00:43:06;7.82;;;2.03;;
50954;SDS011;36966;48.064;-0.792;2023-03-19T00:45:25;6.68;;;1.73;;
50954;SDS011;36966;48.064;-0.792;2023-03-19T00:47:44;9.55;;;1.90;;
50954;SDS011;36966;48.064;-0.792;2023-03-19T00:50:04;3.88;;;1.33;;
50954;SDS011;36966;48.064;-0.792;2023-03-19T00:52:24;10.02;;;1.63;;
50954;SDS011;36966;48.064;-0.792;2023-03-19T00:54:43;9.13;;;1.38;;
50954;SDS011;36966;48.064;-0.792;2023-03-19T00:57:03;4.60;;;1.00;;
50954;SDS011;36966;48.064;-0.792;2023-03-19T00:59:22;6.32;;;1.30;;
50954;SDS011;36966;48.064;-0.792;2023-03-19T01:01:42;8.85;;;1.38;;
50954;SDS011;36966;48.064;-0.792;2023-03-19T01:04:01;7.43;;;2.03;;
50954;SDS011;36966;48.064;-0.792;2023-03-19T01:06:21;4.15;;;1.23;;
50954;SDS011;36966;48.064;-0.792;2023-03-19T01:08:40;5.97;;;1.17;;
50954;SDS011;36966;48.064;-0.792;2023-03-19T01:11:04;2.95;;;1.20;;
50954;SDS011;36966;48.064;-0.792;2023-03-19T01:13:32;5.45;;;0.90;;
50954;SDS011;36966;48.064;-0.792;2023-03-19T01:15:51;12.05;;;1.38;;
50954;SDS011;36966;48.064;-0.792;2023-03-19T01:18:11;7.65;;;1.35;;
50954;SDS011;36966;48.064;-0.792;2023-03-19T01:20:31;7.20;;;1.80;;
50954;SDS011;36966;48.064;-0.792;2023-03-19T01:22:51;5.55;;;1.33;;
50954;SDS011;36966;48.064;-0.792;2023-03-19T01:25:10;4.72;;;1.02;;
50954;SDS011;36966;48.064;-0.792;2023-03-19T01:27:30;5.70;;;1.23;;
50954;SDS011;36966;48.064;-0.792;2023-03-19T01:29:50;4.82;;;1.48;;
50954;SDS011;36966;48.064;-0.792;2023-03-19T01:32:09;7.93;;;2.05;;
50954;SDS011;36966;48.064;-0.792;2023-03-19T01:34:28;9.75;;;1.65;;
50954;SDS011;36966;48.064;-0.792;2023-03-19T01:36:47;11.68;;;1.00;;
50954;SDS011;36966;48.064;-0.792;2023-03-19T01:39:06;6.13;;;1.02;;
50954;SDS011;36966;48.064;-0.792;2023-03-19T01:41:26;7.95;;;1.25;;
50954;SDS011;36966;48.064;-0.792;2023-03-19T01:43:45;8.75;;;1.30;;
50954;SDS011;36966;48.064;-0.792;2023-03-19T01:46:26;7.10;;;0.73;;
50954;SDS011;36966;48.064;-0.792;2023-03-19T01:48:52;4.90;;;0.65;;
50954;SDS011;36966;48.064;-0.792;2023-03-19T01:51:17;5.18;;;0.60;;
50954;SDS011;36966;48.064;-0.792;2023-03-19T01:53:43;9.30;;;1.30;;
50954;SDS011;36966;48.064;-0.792;2023-03-19T01:56:11;4.07;;;0.68;;
50954;SDS011;36966;48.064;-0.792;2023-03-19T01:58:32;4.95;;;0.82;;
50954;SDS011;36966;48.064;-0.792;2023-03-19T02:00:51;5.05;;;0.95;;
50954;SDS011;36966;48.064;-0.792;2023-03-19T02:03:12;4.43;;;1.25;;
50954;SDS011;36966;48.064;-0.792;2023-03-19T02:05:31;4.32;;;0.98;;
50954;SDS011;36966;48.064;-0.792;2023-03-19T02:07:53;5.28;;;0.70;;
50954;SDS011;36966;48.064;-0.792;2023-03-19T02:10:15;6.63;;;2.13;;
50954;SDS011;36966;48.064;-0.792;2023-03-19T02:12:35;8.65;;;1.15;;
50954;SDS011;36966;48.064;-0.792;2023-03-19T02:14:55;4.38;;;1.17;;
50954;SDS011;36966;48.064;-0.792;2023-03-19T02:17:14;10.23;;;1.55;;
50954;SDS011;36966;48.064;-0.792;2023-03-19T02:19:42;9.45;;;1.05;;
50954;SDS011;36966;48.064;-0.792;2023-03-19T02:22:04;3.00;;;0.90;;
50954;SDS011;36966;48.064;-0.792;2023-03-19T02:24:25;4.32;;;0.77;;
50954;SDS011;36966;48.064;-0.792;2023-03-19T02:26:50;5.38;;;0.88;;
50954;SDS011;36966;48.064;-0.792;2023-03-19T02:29:09;12.13;;;1.02;;
50954;SDS011;36966;48.064;-0.792;2023-03-19T02:31:29;8.13;;;1.48;;
50954;SDS011;36966;48.064;-0.792;2023-03-19T02:33:59;14.43;;;2.38;;
50954;SDS011;36966;48.064;-0.792;2023-03-19T02:36:20;5.25;;;1.23;;
50954;SDS011;36966;48.064;-0.792;2023-03-19T02:38:39;3.80;;;0.75;;
50954;SDS011;36966;48.064;-0.792;2023-03-19T02:41:03;5.22;;;0.70;;
50954;SDS011;36966;48.064;-0.792;2023-03-19T02:43:25;8.98;;;0.93;;
50954;SDS011;36966;48.064;-0.792;2023-03-19T02:45:44;7.82;;;1.35;;
50954;SDS011;36966;48.064;-0.792;2023-03-19T02:48:03;11.05;;;1.75;;
50954;SDS011;36966;48.064;-0.792;2023-03-19T02:50:23;4.80;;;0.65;;
50954;SDS011;36966;48.064;-0.792;2023-03-19T02:52:43;7.00;;;1.83;;
50954;SDS011;36966;48.064;-0.792;2023-03-19T02:55:02;4.10;;;0.70;;
50954;SDS011;36966;48.064;-0.792;2023-03-19T02:57:22;6.07;;;0.80;;
50954;SDS011;36966;48.064;-0.792;2023-03-19T02:59:41;5.20;;;0.80;;
50954;SDS011;36966;48.064;-0.792;2023-03-19T03:02:00;6.45;;;1.58;;
50954;SDS011;36966;48.064;-0.792;2023-03-19T03:04:19;5.57;;;0.50;;
50954;SDS011;36966;48.064;-0.792;2023-03-19T03:06:39;7.78;;;1.27;;
50954;SDS011;36966;48.064;-0.792;2023-03-19T03:08:59;7.90;;;0.90;;
50954;SDS011;36966;48.064;-0.792;2023-03-19T03:11:18;9.85;;;1.67;;
50954;SDS011;36966;48.064;-0.792;2023-03-19T03:13:37;6.75;;;1.00;;
50954;SDS011;36966;48.064;-0.792;2023-03-19T03:15:56;9.98;;;0.95;;
50954;SDS011;36966;48.064;-0.792;2023-03-19T03:18:16;9.13;;;1.02;;
50954;SDS011;36966;48.064;-0.792;2023-03-19T03:20:36;8.55;;;1.30;;
50954;SDS011;36966;48.064;-0.792;2023-03-19T03:22:56;8.35;;;1.17;;
50954;SDS011;36966;48.064;-0.792;2023-03-19T03:25:15;8.43;;;1.33;;
50954;SDS011;36966;48.064;-0.792;2023-03-19T03:27:34;13.07;;;1.33;;
50954;SDS011;36966;48.064;-0.792;2023-03-19T03:29:54;7.57;;;1.48;;
50954;SDS011;36966;48.064;-0.792;2023-03-19T03:32:14;9.13;;;1.45;;
50954;SDS011;36966;48.064;-0.792;2023-03-19T03:34:34;9.48;;;2.13;;
50954;SDS011;36966;48.064;-0.792;2023-03-19T03:36:53;8.02;;;1.52;;
50954;SDS011;36966;48.064;-0.792;2023-03-19T03:39:12;10.00;;;1.58;;
50954;SDS011;36966;48.064;-0.792;2023-03-19T03:41:32;10.10;;;1.83;;
50954;SDS011;36966;48.064;-0.792;2023-03-19T03:43:51;6.28;;;1.67;;
50954;SDS011;36966;48.064;-0.792;2023-03-19T03:46:10;11.13;;;0.93;;
50954;SDS011;36966;48.064;-0.792;2023-03-19T03:48:30;12.63;;;2.17;;
50954;SDS011;36966;48.064;-0.792;2023-03-19T03:50:49;5.60;;;1.73;;
50954;SDS011;36966;48.064;-0.792;2023-03-19T03:53:09;7.55;;;1.20;;
50954;SDS011;36966;48.064;-0.792;2023-03-19T03:55:30;7.85;;;1.88;;
50954;SDS011;36966;48.064;-0.792;2023-03-19T03:57:50;3.80;;;1.10;;
50954;SDS011;36966;48.064;-0.792;2023-03-19T04:00:10;10.35;;;1.50;;
50954;SDS011;36966;48.064;-0.792;2023-03-19T04:02:30;3.72;;;1.27;;
50954;SDS011;36966;48.064;-0.792;2023-03-19T04:04:49;16.95;;;3.05;;
50954;SDS011;36966;48.064;-0.792;2023-03-19T04:07:09;8.90;;;1.30;;
50954;SDS011;36966;48.064;-0.792;2023-03-19T04:09:28;8.30;;;1.42;;
50954;SDS011;36966;48.064;-0.792;2023-03-19T04:11:47;9.93;;;2.15;;
50954;SDS011;36966;48.064;-0.792;2023-03-19T04:14:06;7.22;;;1.30;;
50954;SDS011;36966;48.064;-0.792;2023-03-19T04:16:26;6.80;;;1.20;;
50954;SDS011;36966;48.064;-0.792;2023-03-19T04:18:46;7.50;;;1.20;;
50954;SDS011;36966;48.064;-0.792;2023-03-19T04:21:05;5.47;;;1.15;;
50954;SDS011;36966;48.064;-0.792;2023-03-19T04:23:25;7.28;;;1.00;;
50954;SDS011;36966;48.064;-0.792;2023-03-19T04:25:44;8.70;;;1.38;;
50954;SDS011;36966;48.064;-0.792;2023-03-19T04:28:04;5.70;;;1.10;;
50954;SDS011;36966;48.064;-0.792;2023-03-19T04:30:23;9.10;;;1.42;;
50954;SDS011;36966;48.064;-0.792;2023-03-19T04:32:42;9.60;;;1.83;;
50954;SDS011;36966;48.064;-0.792;2023-03-19T04:35:01;5.53;;;1.08;;
50954;SDS011;36966;48.064;-0.792;2023-03-19T04:37:21;5.35;;;1.20;;
50954;SDS011;36966;48.064;-0.792;2023-03-19T04:39:40;15.88;;;2.25;;
50954;SDS011;36966;48.064;-0.792;2023-03-19T04:41:59;5.13;;;1.40;;
50954;SDS011;36966;48.064;-0.792;2023-03-19T04:44:18;7.55;;;1.42;;
50954;SDS011;36966;48.064;-0.792;2023-03-19T04:46:37;7.43;;;1.48;;
50954;SDS011;36966;48.064;-0.792;2023-03-19T04:48:56;7.55;;;1.40;;
50954;SDS011;36966;48.064;-0.792;2023-03-19T04:51:17;6.50;;;1.25;;
50954;SDS011;36966;48.064;-0.792;2023-03-19T04:53:39;7.30;;;1.02;;
50954;SDS011;36966;48.064;-0.792;2023-03-19T04:55:59;6.70;;;1.20;;
50954;SDS011;36966;48.064;-0.792;2023-03-19T04:58:19;10.57;;;1.40;;
50954;SDS011;36966;48.064;-0.792;2023-03-19T05:00:39;7.07;;;1.33;;
50954;SDS011;36966;48.064;-0.792;2023-03-19T05:02:59;7.53;;;1.55;;
50954;SDS011;36966;48.064;-0.792;2023-03-19T05:05:18;8.82;;;1.17;;
50954;SDS011;36966;48.064;-0.792;2023-03-19T05:07:37;8.00;;;1.10;;
50954;SDS011;36966;48.064;-0.792;2023-03-19T05:09:57;6.15;;;1.17;;
50954;SDS011;36966;48.064;-0.792;2023-03-19T05:12:17;3.45;;;1.10;;
50954;SDS011;36966;48.064;-0.792;2023-03-19T05:14:36;4.95;;;1.08;;
50954;SDS011;36966;48.064;-0.792;2023-03-19T05:16:55;6.47;;;1.50;;
50954;SDS011;36966;48.064;-0.792;2023-03-19T05:19:14;3.58;;;0.93;;
50954;SDS011;36966;48.064;-0.792;2023-03-19T05:21:33;9.40;;;1.15;;
50954;SDS011;36966;48.064;-0.792;2023-03-19T05:23:52;4.93;;;0.77;;
50954;SDS011;36966;48.064;-0.792;2023-03-19T05:26:12;2.63;;;0.70;;
50954;SDS011;36966;48.064;-0.792;2023-03-19T05:28:31;3.42;;;0.95;;
50954;SDS011;36966;48.064;-0.792;2023-03-19T05:30:51;4.70;;;0.95;;
50954;SDS011;36966;48.064;-0.792;2023-03-19T05:33:10;4.78;;;0.70;;
50954;SDS011;36966;48.064;-0.792;2023-03-19T05:35:30;3.90;;;0.80;;
50954;SDS011;36966;48.064;-0.792;2023-03-19T05:37:49;4.43;;;0.75;;
50954;SDS011;36966;48.064;-0.792;2023-03-19T05:40:08;2.58;;;0.82;;
50954;SDS011;36966;48.064;-0.792;2023-03-19T05:42:28;2.35;;;0.60;;
50954;SDS011;36966;48.064;-0.792;2023-03-19T05:44:47;1.80;;;0.70;;
50954;SDS011;36966;48.064;-0.792;2023-03-19T05:47:07;1.88;;;0.57;;
50954;SDS011;36966;48.064;-0.792;2023-03-19T05:49:29;1.20;;;0.57;;
50954;SDS011;36966;48.064;-0.792;2023-03-19T05:51:48;3.00;;;0.80;;
50954;SDS011;36966;48.064;-0.792;2023-03-19T05:54:07;4.88;;;0.80;;
50954;SDS011;36966;48.064;-0.792;2023-03-19T05:56:27;1.80;;;0.40;;
50954;SDS011;36966;48.064;-0.792;2023-03-19T05:58:46;2.03;;;0.50;;
50954;SDS011;36966;48.064;-0.792;2023-03-19T06:01:05;4.13;;;0.52;;
50954;SDS011;36966;48.064;-0.792;2023-03-19T06:03:25;2.95;;;0.95;;
50954;SDS011;36966;48.064;-0.792;2023-03-19T06:05:47;3.03;;;0.50;;
50954;SDS011;36966;48.064;-0.792;2023-03-19T06:08:08;2.90;;;0.55;;
50954;SDS011;36966;48.064;-0.792;2023-03-19T06:10:27;2.22;;;0.75;;
50954;SDS011;36966;48.064;-0.792;2023-03-19T06:12:46;2.35;;;0.45;;
50954;SDS011;36966;48.064;-0.792;2023-03-19T06:15:05;3.30;;;0.88;;
50954;SDS011;36966;48.064;-0.792;2023-03-19T06:17:26;4.55;;;0.40;;
50954;SDS011;36966;48.064;-0.792;2023-03-19T06:19:46;1.75;;;0.60;;
50954;SDS011;36966;48.064;-0.792;2023-03-19T06:22:05;4.30;;;0.60;;
50954;SDS011;36966;48.064;-0.792;2023-03-19T06:24:25;3.83;;;0.70;;
50954;SDS011;36966;48.064;-0.792;2023-03-19T06:26:44;2.55;;;0.95;;
50954;SDS011;36966;48.064;-0.792;2023-03-19T06:29:03;5.47;;;0.50;;
50954;SDS011;36966;48.064;-0.792;2023-03-19T06:31:22;4.57;;;0.70;;
50954;SDS011;36966;48.064;-0.792;2023-03-19T06:33:42;2.05;;;0.70;;
50954;SDS011;36966;48.064;-0.792;2023-03-19T06:36:01;1.42;;;0.40;;
50954;SDS011;36966;48.064;-0.792;2023-03-19T06:38:21;3.38;;;0.50;;
50954;SDS011;36966;48.064;-0.792;2023-03-19T06:40:40;2.75;;;0.50;;
50954;SDS011;36966;48.064;-0.792;2023-03-19T06:42:59;2.88;;;0.90;;
50954;SDS011;36966;48.064;-0.792;2023-03-19T06:45:18;2.80;;;0.40;;
50954;SDS011;36966;48.064;-0.792;2023-03-19T06:47:39;2.20;;;0.30;;
50954;SDS011;36966;48.064;-0.792;2023-03-19T06:49:59;1.02;;;0.50;;
50954;SDS011;36966;48.064;-0.792;2023-03-19T06:52:18;6.32;;;1.30;;
50954;SDS011;36966;48.064;-0.792;2023-03-19T06:54:38;3.85;;;0.55;;
50954;SDS011;36966;48.064;-0.792;2023-03-19T06:56:57;2.75;;;0.60;;
50954;SDS011;36966;48.064;-0.792;2023-03-19T06:59:17;4.10;;;0.65;;
50954;SDS011;36966;48.064;-0.792;2023-03-19T07:01:36;5.00;;;0.73;;
50954;SDS011;36966;48.064;-0.792;2023-03-19T07:03:55;4.20;;;0.70;;
50954;SDS011;36966;48.064;-0.792;2023-03-19T07:06:14;6.35;;;0.60;;
50954;SDS011;36966;48.064;-0.792;2023-03-19T07:08:33;4.25;;;0.70;;
50954;SDS011;36966;48.064;-0.792;2023-03-19T07:10:52;2.38;;;0.95;;
50954;SDS011;36966;48.064;-0.792;2023-03-19T07:13:11;4.75;;;1.20;;
50954;SDS011;36966;48.064;-0.792;2023-03-19T07:15:31;6.60;;;0.98;;
50954;SDS011;36966;48.064;-0.792;2023-03-19T07:17:51;3.47;;;0.52;;
50954;SDS011;36966;48.064;-0.792;2023-03-19T07:20:10;5.10;;;0.93;;
50954;SDS011;36966;48.064;-0.792;2023-03-19T07:22:30;3.90;;;0.43;;
50954;SDS011;36966;48.064;-0.792;2023-03-19T07:24:49;4.22;;;0.77;;
50954;SDS011;36966;48.064;-0.792;2023-03-19T07:27:08;6.55;;;0.60;;
50954;SDS011;36966;48.064;-0.792;2023-03-19T07:29:28;7.90;;;0.70;;
50954;SDS011;36966;48.064;-0.792;2023-03-19T07:31:47;5.07;;;0.75;;
50954;SDS011;36966;48.064;-0.792;2023-03-19T07:34:06;2.25;;;0.63;;
50954;SDS011;36966;48.064;-0.792;2023-03-19T07:36:25;4.35;;;0.65;;
50954;SDS011;36966;48.064;-0.792;2023-03-19T07:38:44;5.47;;;1.40;;
50954;SDS011;36966;48.064;-0.792;2023-03-19T07:41:04;3.97;;;0.95;;
50954;SDS011;36966;48.064;-0.792;2023-03-19T07:43:23;4.68;;;0.70;;
50954;SDS011;36966;48.064;-0.792;2023-03-19T07:45:43;4.25;;;1.10;;
50954;SDS011;36966;48.064;-0.792;2023-03-19T07:48:02;2.70;;;0.80;;
50954;SDS011;36966;48.064;-0.792;2023-03-19T07:50:22;3.33;;;0.60;;
50954;SDS011;36966;48.064;-0.792;2023-03-19T07:52:44;4.40;;;0.65;;
50954;SDS011;36966;48.064;-0.792;2023-03-19T07:55:07;2.47;;;0.47;;
50954;SDS011;36966;48.064;-0.792;2023-03-19T07:57:26;3.67;;;0.68;;
50954;SDS011;36966;48.064;-0.792;2023-03-19T07:59:45;5.60;;;0.68;;
50954;SDS011;36966;48.064;-0.792;2023-03-19T08:02:04;4.22;;;0.85;;
50954;SDS011;36966;48.064;-0.792;2023-03-19T08:04:24;2.50;;;0.55;;
50954;SDS011;36966;48.064;-0.792;2023-03-19T08:06:43;5.50;;;0.63;;
50954;SDS011;36966;48.064;-0.792;2023-03-19T08:09:02;4.97;;;1.30;;
50954;SDS011;36966;48.064;-0.792;2023-03-19T08:11:22;2.67;;;1.15;;
50954;SDS011;36966;48.064;-0.792;2023-03-19T08:13:41;4.07;;;0.73;;
50954;SDS011;36966;48.064;-0.792;2023-03-19T08:16:00;3.25;;;0.55;;
50954;SDS011;36966;48.064;-0.792;2023-03-19T08:18:19;2.60;;;0.73;;
50954;SDS011;36966;48.064;-0.792;2023-03-19T08:20:38;5.28;;;0.60;;
50954;SDS011;36966;48.064;-0.792;2023-03-19T08:22:58;2.90;;;1.77;;
50954;SDS011;36966;48.064;-0.792;2023-03-19T08:25:17;6.70;;;0.70;;
50954;SDS011;36966;48.064;-0.792;2023-03-19T08:27:36;4.50;;;0.35;;
50954;SDS011;36966;48.064;-0.792;2023-03-19T08:29:56;1.08;;;0.30;;
50954;SDS011;36966;48.064;-0.792;2023-03-19T08:32:16;2.25;;;0.50;;
50954;SDS011;36966;48.064;-0.792;2023-03-19T08:34:35;3.50;;;0.40;;
50954;SDS011;36966;48.064;-0.792;2023-03-19T08:36:55;4.53;;;0.35;;
50954;SDS011;36966;48.064;-0.792;2023-03-19T08:39:14;4.72;;;0.50;;
50954;SDS011;36966;48.064;-0.792;2023-03-19T08:41:33;2.63;;;0.60;;
50954;SDS011;36966;48.064;-0.792;2023-03-19T08:43:52;3.50;;;0.50;;
50954;SDS011;36966;48.064;-0.792;2023-03-19T08:46:12;2.60;;;0.50;;
50954;SDS011;36966;48.064;-0.792;2023-03-19T08:48:31;8.02;;;0.70;;
50954;SDS011;36966;48.064;-0.792;2023-03-19T08:50:54;2.15;;;0.40;;
50954;SDS011;36966;48.064;-0.792;2023-03-19T08:55:34;5.07;;;0.55;;
50954;SDS011;36966;48.064;-0.792;2023-03-19T08:57:53;5.97;;;0.93;;
50954;SDS011;36966;48.064;-0.792;2023-03-19T09:00:12;3.03;;;0.50;;
50954;SDS011;36966;48.064;-0.792;2023-03-19T09:02:32;3.00;;;0.50;;
50954;SDS011;36966;48.064;-0.792;2023-03-19T09:04:51;6.18;;;0.70;;
50954;SDS011;36966;48.064;-0.792;2023-03-19T09:07:11;5.93;;;1.05;;
50954;SDS011;36966;48.064;-0.792;2023-03-19T09:09:33;8.13;;;0.70;;
50954;SDS011;36966;48.064;-0.792;2023-03-19T09:11:53;5.13;;;0.63;;
50954;SDS011;36966;48.064;-0.792;2023-03-19T09:14:13;5.20;;;0.50;;
50954;SDS011;36966;48.064;-0.792;2023-03-19T09:16:34;9.55;;;1.08;;
50954;SDS011;36966;48.064;-0.792;2023-03-19T09:18:53;3.17;;;0.60;;
50954;SDS011;36966;48.064;-0.792;2023-03-19T09:21:13;4.15;;;0.57;;
50954;SDS011;36966;48.064;-0.792;2023-03-19T09:23:32;2.50;;;0.40;;
50954;SDS011;36966;48.064;-0.792;2023-03-19T09:25:51;4.55;;;0.30;;
50954;SDS011;36966;48.064;-0.792;2023-03-19T09:28:11;6.13;;;0.60;;
50954;SDS011;36966;48.064;-0.792;2023-03-19T09:30:30;2.70;;;0.73;;
50954;SDS011;36966;48.064;-0.792;2023-03-19T09:32:49;4.22;;;1.02;;
50954;SDS011;36966;48.064;-0.792;2023-03-19T09:35:08;1.73;;;0.30;;
50954;SDS011;36966;48.064;-0.792;2023-03-19T09:37:28;8.38;;;0.73;;
50954;SDS011;36966;48.064;-0.792;2023-03-19T09:39:47;2.58;;;0.55;;
50954;SDS011;36966;48.064;-0.792;2023-03-19T09:42:14;4.50;;;0.75;;
50954;SDS011;36966;48.064;-0.792;2023-03-19T09:44:54;2.92;;;0.57;;
50954;SDS011;36966;48.064;-0.792;2023-03-19T09:49:37;7.22;;;1.15;;
50954;SDS011;36966;48.064;-0.792;2023-03-19T09:54:45;5.40;;;0.40;;
50954;SDS011;36966;48.064;-0.792;2023-03-19T09:57:07;4.05;;;0.50;;
50954;SDS011;36966;48.064;-0.792;2023-03-19T09:59:27;4.70;;;1.17;;
50954;SDS011;36966;48.064;-0.792;2023-03-19T10:04:38;3.97;;;0.40;;
50954;SDS011;36966;48.064;-0.792;2023-03-19T10:07:46;7.32;;;0.60;;
50954;SDS011;36966;48.064;-0.792;2023-03-19T10:12:41;1.30;;;0.40;;
50954;SDS011;36966;48.064;-0.792;2023-03-19T10:15:31;2.55;;;0.82;;
50954;SDS011;36966;48.064;-0.792;2023-03-19T10:20:23;8.02;;;0.80;;
50954;SDS011;36966;48.064;-0.792;2023-03-19T10:22:50;4.15;;;0.52;;
50954;SDS011;36966;48.064;-0.792;2023-03-19T10:25:22;2.13;;;0.60;;
50954;SDS011;36966;48.064;-0.792;2023-03-19T10:27:45;6.90;;;0.80;;
50954;SDS011;36966;48.064;-0.792;2023-03-19T10:30:14;4.78;;;1.73;;
50954;SDS011;36966;48.064;-0.792;2023-03-19T10:32:41;3.30;;;0.77;;
50954;SDS011;36966;48.064;-0.792;2023-03-19T10:35:06;2.85;;;0.90;;
50954;SDS011;36966;48.064;-0.792;2023-03-19T10:37:38;3.45;;;0.57;;
50954;SDS011;36966;48.064;-0.792;2023-03-19T10:39:57;3.38;;;1.20;;
50954;SDS011;36966;48.064;-0.792;2023-03-19T10:47:45;6.25;;;1.55;;
50954;SDS011;36966;48.064;-0.792;2023-03-19T10:50:05;3.63;;;0.80;;
50954;SDS011;36966;48.064;-0.792;2023-03-19T10:52:35;6.15;;;1.20;;
50954;SDS011;36966;48.064;-0.792;2023-03-19T10:55:15;5.32;;;1.27;;
50954;SDS011;36966;48.064;-0.792;2023-03-19T10:57:36;4.85;;;1.20;;
50954;SDS011;36966;48.064;-0.792;2023-03-19T11:00:02;4.50;;;1.10;;
50954;SDS011;36966;48.064;-0.792;2023-03-19T11:02:24;3.77;;;1.10;;
50954;SDS011;36966;48.064;-0.792;2023-03-19T11:05:04;6.35;;;1.10;;
50954;SDS011;36966;48.064;-0.792;2023-03-19T11:07:26;3.42;;;1.20;;
50954;SDS011;36966;48.064;-0.792;2023-03-19T11:09:49;2.72;;;0.77;;
50954;SDS011;36966;48.064;-0.792;2023-03-19T11:14:38;2.47;;;0.77;;
50954;SDS011;36966;48.064;-0.792;2023-03-19T11:19:40;6.25;;;0.93;;
50954;SDS011;36966;48.064;-0.792;2023-03-19T11:22:08;2.45;;;0.75;;
50954;SDS011;36966;48.064;-0.792;2023-03-19T11:24:40;4.57;;;0.70;;
50954;SDS011;36966;48.064;-0.792;2023-03-19T11:27:00;4.10;;;0.88;;
50954;SDS011;36966;48.064;-0.792;2023-03-19T11:29:20;3.50;;;0.88;;
50954;SDS011;36966;48.064;-0.792;2023-03-19T11:31:46;3.45;;;0.47;;
50954;SDS011;36966;48.064;-0.792;2023-03-19T11:34:19;2.13;;;0.47;;
50954;SDS011;36966;48.064;-0.792;2023-03-19T11:39:24;2.10;;;0.63;;
50954;SDS011;36966;48.064;-0.792;2023-03-19T11:42:10;3.72;;;0.70;;
50954;SDS011;36966;48.064;-0.792;2023-03-19T11:50:25;3.80;;;0.82;;
50954;SDS011;36966;48.064;-0.792;2023-03-19T11:53:20;2.75;;;0.60;;
50954;SDS011;36966;48.064;-0.792;2023-03-19T12:00:46;5.38;;;1.20;;
50954;SDS011;36966;48.064;-0.792;2023-03-19T12:13:36;4.43;;;0.63;;
50954;SDS011;36966;48.064;-0.792;2023-03-19T12:16:35;4.07;;;0.60;;
50954;SDS011;36966;48.064;-0.792;2023-03-19T12:19:27;2.92;;;0.55;;
50954;SDS011;36966;48.064;-0.792;2023-03-19T12:32:38;3.28;;;0.40;;
50954;SDS011;36966;48.064;-0.792;2023-03-19T12:35:13;5.68;;;0.57;;
50954;SDS011;36966;48.064;-0.792;2023-03-19T12:40:42;1.58;;;0.50;;
50954;SDS011;36966;48.064;-0.792;2023-03-19T12:43:26;3.17;;;0.60;;
50954;SDS011;36966;48.064;-0.792;2023-03-19T12:45:51;3.17;;;1.13;;
50954;SDS011;36966;48.064;-0.792;2023-03-19T12:48:21;7.57;;;0.90;;
50954;SDS011;36966;48.064;-0.792;2023-03-19T12:50:49;5.70;;;0.50;;
50954;SDS011;36966;48.064;-0.792;2023-03-19T12:55:51;4.25;;;0.60;;
50954;SDS011;36966;48.064;-0.792;2023-03-19T13:09:28;5.95;;;0.55;;
50954;SDS011;36966;48.064;-0.792;2023-03-19T13:19:17;4.32;;;0.70;;
50954;SDS011;36966;48.064;-0.792;2023-03-19T13:21:46;3.50;;;0.30;;
50954;SDS011;36966;48.064;-0.792;2023-03-19T13:26:42;3.58;;;0.95;;
50954;SDS011;36966;48.064;-0.792;2023-03-19T13:29:07;4.53;;;0.50;;
50954;SDS011;36966;48.064;-0.792;2023-03-19T13:31:34;5.07;;;0.90;;
50954;SDS011;36966;48.064;-0.792;2023-03-19T13:36:21;6.65;;;0.90;;
50954;SDS011;36966;48.064;-0.792;2023-03-19T13:38:46;5.00;;;0.60;;
50954;SDS011;36966;48.064;-0.792;2023-03-19T13:43:53;7.30;;;0.77;;
50954;SDS011;36966;48.064;-0.792;2023-03-19T13:48:36;3.45;;;0.60;;
50954;SDS011;36966;48.064;-0.792;2023-03-19T13:53:39;4.13;;;0.55;;
50954;SDS011;36966;48.064;-0.792;2023-03-19T13:56:10;2.72;;;0.60;;
50954;SDS011;36966;48.064;-0.792;2023-03-19T13:58:30;4.68;;;0.70;;
50954;SDS011;36966;48.064;-0.792;2023-03-19T14:01:11;5.18;;;1.20;;
50954;SDS011;36966;48.064;-0.792;2023-03-19T14:03:58;4.43;;;0.35;;
50954;SDS011;36966;48.064;-0.792;2023-03-19T14:06:34;5.10;;;0.55;;
50954;SDS011;36966;48.064;-0.792;2023-03-19T14:09:05;5.97;;;1.10;;
50954;SDS011;36966;48.064;-0.792;2023-03-19T14:11:46;5.30;;;0.80;;
50954;SDS011;36966;48.064;-0.792;2023-03-19T14:14:05;2.60;;;0.75;;
50954;SDS011;36966;48.064;-0.792;2023-03-19T14:16:32;3.15;;;0.88;;
50954;SDS011;36966;48.064;-0.792;2023-03-19T14:18:54;3.57;;;0.53;;
50954;SDS011;36966;48.064;-0.792;2023-03-19T14:21:15;3.85;;;0.43;;
50954;SDS011;36966;48.064;-0.792;2023-03-19T14:23:53;3.50;;;0.73;;
50954;SDS011;36966;48.064;-0.792;2023-03-19T14:26:15;3.72;;;0.80;;
50954;SDS011;36966;48.064;-0.792;2023-03-19T14:31:24;2.83;;;0.20;;
50954;SDS011;36966;48.064;-0.792;2023-03-19T14:36:28;5.05;;;0.80;;
50954;SDS011;36966;48.064;-0.792;2023-03-19T14:38:53;3.58;;;0.50;;
50954;SDS011;36966;48.064;-0.792;2023-03-19T14:41:39;3.53;;;0.47;;
50954;SDS011;36966;48.064;-0.792;2023-03-19T14:51:56;7.70;;;0.47;;
50954;SDS011;36966;48.064;-0.792;2023-03-19T14:56:51;5.13;;;0.50;;
50954;SDS011;36966;48.064;-0.792;2023-03-19T14:59:14;4.25;;;0.47;;
50954;SDS011;36966;48.064;-0.792;2023-03-19T15:01:37;6.10;;;0.60;;
50954;SDS011;36966;48.064;-0.792;2023-03-19T15:03:59;3.30;;;0.63;;
50954;SDS011;36966;48.064;-0.792;2023-03-19T15:06:22;6.32;;;0.60;;
50954;SDS011;36966;48.064;-0.792;2023-03-19T15:08:42;5.75;;;0.40;;
50954;SDS011;36966;48.064;-0.792;2023-03-19T15:16:29;2.92;;;0.52;;
50954;SDS011;36966;48.064;-0.792;2023-03-19T15:21:49;3.08;;;0.57;;
50954;SDS011;36966;48.064;-0.792;2023-03-19T15:24:13;2.83;;;0.57;;
50954;SDS011;36966;48.064;-0.792;2023-03-19T15:26:35;4.53;;;0.30;;
50954;SDS011;36966;48.064;-0.792;2023-03-19T15:28:55;3.75;;;0.40;;
50954;SDS011;36966;48.064;-0.792;2023-03-19T15:31:16;3.35;;;0.43;;
50954;SDS011;36966;48.064;-0.792;2023-03-19T15:33:37;7.03;;;1.02;;
50954;SDS011;36966;48.064;-0.792;2023-03-19T15:35:57;3.65;;;0.40;;
50954;SDS011;36966;48.064;-0.792;2023-03-19T15:38:22;5.28;;;0.30;;
50954;SDS011;36966;48.064;-0.792;2023-03-19T15:40:45;6.32;;;0.55;;
50954;SDS011;36966;48.064;-0.792;2023-03-19T15:43:05;3.65;;;0.40;;
50954;SDS011;36966;48.064;-0.792;2023-03-19T15:45:30;3.80;;;0.52;;
50954;SDS011;36966;48.064;-0.792;2023-03-19T15:48:02;3.17;;;1.38;;
50954;SDS011;36966;48.064;-0.792;2023-03-19T15:50:32;2.75;;;0.40;;
50954;SDS011;36966;48.064;-0.792;2023-03-19T15:52:59;2.83;;;0.70;;
50954;SDS011;36966;48.064;-0.792;2023-03-19T15:55:32;2.20;;;0.40;;
50954;SDS011;36966;48.064;-0.792;2023-03-19T15:57:54;1.92;;;0.47;;
50954;SDS011;36966;48.064;-0.792;2023-03-19T16:00:15;5.55;;;0.50;;
50954;SDS011;36966;48.064;-0.792;2023-03-19T16:02:38;3.72;;;0.90;;
50954;SDS011;36966;48.064;-0.792;2023-03-19T16:04:59;5.37;;;0.70;;